Time;durP1;ratioP1;P1;durP2;ratioP2;P2;SDS_P1;SDS_P2;PMS_P1;PMS_P2;Temp;Humidity;BMP_temperature;BMP_pressure;BME280_temperature;BME280_humidity;BME280_pressure;Samples;Min_cycle;Max_cycle;Signal;HPM_P1;HPM_P2
2021/12/20 00:01:43;;;;;;;15.10;3.05;;;6.90;99.90;;;;;;5095098;28;20046;-72
2021/12/20 00:04:08;;;;;;;17.77;3.03;;;6.90;99.90;;;;;;5093274;28;20039;-72
2021/12/20 00:06:34;;;;;;;14.77;3.65;;;6.90;99.90;;;;;;5110226;28;20032;-72
2021/12/20 00:08:59;;;;;;;18.75;2.92;;;6.90;99.90;;;;;;5112914;28;21280;-72
2021/12/20 00:11:25;;;;;;;19.05;3.20;;;6.90;99.90;;;;;;5110253;28;20399;-72
2021/12/20 00:13:51;;;;;;;20.85;3.33;;;6.90;99.90;;;;;;5093739;28;20043;-72
2021/12/20 00:16:16;;;;;;;15.70;3.10;;;6.90;99.90;;;;;;5111934;28;20458;-72
2021/12/20 00:18:43;;;;;;;14.18;3.38;;;6.90;99.90;;;;;;5096007;28;20064;-72
2021/12/20 00:21:10;;;;;;;14.10;3.13;;;6.80;99.90;;;;;;5092069;28;20070;-72
2021/12/20 00:23:35;;;;;;;15.48;2.83;;;6.80;99.90;;;;;;5094302;28;20084;-72
2021/12/20 00:26:01;;;;;;;16.83;2.95;;;6.80;99.90;;;;;;5094531;28;20560;-72
2021/12/20 00:28:27;;;;;;;15.50;3.03;;;6.80;99.90;;;;;;5095673;28;20110;-72
2021/12/20 00:30:52;;;;;;;17.13;3.25;;;6.80;99.90;;;;;;5094858;28;20038;-72
2021/12/20 00:33:18;;;;;;;18.75;2.85;;;6.80;99.90;;;;;;5106616;28;20039;-72
2021/12/20 00:35:44;;;;;;;15.45;3.38;;;6.80;99.90;;;;;;5094562;28;20073;-72
2021/12/20 00:40:55;;;;;;;15.43;2.92;;;6.70;99.90;;;;;;5110474;28;20036;-72
2021/12/20 00:43:20;;;;;;;14.02;2.85;;;6.80;99.90;;;;;;5092791;28;20040;-72
2021/12/20 00:45:46;;;;;;;14.85;2.80;;;6.80;99.90;;;;;;5110583;28;20107;-72
2021/12/20 00:48:12;;;;;;;16.25;3.25;;;6.80;99.90;;;;;;5109455;28;20050;-72
2021/12/20 00:50:39;;;;;;;16.80;2.42;;;6.80;99.90;;;;;;5110273;28;20046;-72
2021/12/20 00:53:05;;;;;;;16.02;2.60;;;6.80;99.90;;;;;;5108377;28;20039;-72
2021/12/20 00:55:30;;;;;;;15.70;2.65;;;6.70;99.90;;;;;;5095048;28;20118;-72
2021/12/20 00:57:58;;;;;;;17.10;3.20;;;6.70;99.90;;;;;;5109780;28;20035;-72
2021/12/20 01:00:28;;;;;;;17.77;3.20;;;6.70;99.90;;;;;;5111014;28;20042;-72
2021/12/20 01:02:55;;;;;;;23.25;3.75;;;6.70;99.90;;;;;;5092699;28;20044;-72
2021/12/20 01:05:22;;;;;;;18.55;2.83;;;6.70;99.90;;;;;;5089613;28;20084;-72
2021/12/20 01:07:48;;;;;;;17.70;3.03;;;6.70;99.90;;;;;;5110561;28;20548;-72
2021/12/20 01:10:15;;;;;;;16.08;2.85;;;6.70;99.90;;;;;;5110673;28;20035;-72
2021/12/20 01:12:50;;;;;;;18.50;3.03;;;6.70;99.90;;;;;;5093098;28;20031;-72
2021/12/20 01:15:24;;;;;;;16.65;3.33;;;6.70;99.90;;;;;;5108745;28;20048;-72
2021/12/20 01:17:50;;;;;;;18.02;2.95;;;6.60;99.90;;;;;;5111855;28;20048;-72
2021/12/20 01:20:17;;;;;;;14.77;3.47;;;6.70;99.90;;;;;;5094017;28;20074;-72
2021/12/20 01:22:47;;;;;;;19.13;2.92;;;6.60;99.90;;;;;;5094779;28;20048;-72
2021/12/20 01:25:13;;;;;;;12.35;2.53;;;6.60;99.90;;;;;;5110670;28;20032;-72
2021/12/20 01:27:39;;;;;;;23.48;3.50;;;6.60;99.90;;;;;;5111669;28;20062;-72
2021/12/20 01:30:07;;;;;;;18.33;2.78;;;6.50;99.90;;;;;;5090523;28;20070;-72
2021/12/20 01:32:33;;;;;;;20.70;3.22;;;6.50;99.90;;;;;;5111343;28;20040;-72
2021/12/20 01:34:59;;;;;;;15.70;2.78;;;6.40;99.90;;;;;;5093843;28;20032;-72
2021/12/20 01:37:24;;;;;;;18.20;2.95;;;6.40;99.90;;;;;;5094422;28;20448;-72
2021/12/20 01:39:51;;;;;;;13.15;2.70;;;6.40;99.90;;;;;;5110498;28;20530;-72
2021/12/20 01:42:19;;;;;;;17.58;3.05;;;6.40;99.90;;;;;;5092702;28;20043;-72
2021/12/20 01:44:45;;;;;;;16.08;3.05;;;6.40;99.90;;;;;;5111459;28;20032;-72
2021/12/20 01:47:12;;;;;;;16.35;2.88;;;6.30;99.90;;;;;;5091989;28;20039;-72
2021/12/20 01:49:51;;;;;;;19.55;3.40;;;6.30;99.90;;;;;;5111526;28;20043;-72
2021/12/20 01:52:20;;;;;;;15.50;3.15;;;6.30;99.90;;;;;;5091640;28;20041;-72
2021/12/20 01:54:46;;;;;;;16.55;2.97;;;6.30;99.90;;;;;;5109254;28;20114;-72
2021/12/20 01:57:11;;;;;;;14.13;2.55;;;6.20;99.90;;;;;;5109625;28;20123;-72
2021/12/20 01:59:40;;;;;;;15.07;2.90;;;6.20;99.90;;;;;;5094462;28;20069;-72
2021/12/20 02:02:07;;;;;;;18.35;2.53;;;6.20;99.90;;;;;;5110176;28;20028;-72
2021/12/20 02:04:42;;;;;;;17.15;2.78;;;6.10;99.90;;;;;;5111238;28;20031;-72
2021/12/20 02:07:08;;;;;;;16.63;2.45;;;6.10;99.90;;;;;;5112884;28;20040;-72
2021/12/20 02:09:33;;;;;;;16.70;2.50;;;6.10;99.90;;;;;;5115138;28;20077;-72
2021/12/20 02:11:59;;;;;;;12.70;2.90;;;6.10;99.90;;;;;;5114272;28;20035;-72
2021/12/20 02:14:25;;;;;;;15.20;2.47;;;6.10;99.90;;;;;;5097825;28;20504;-72
2021/12/20 02:16:51;;;;;;;14.38;1.92;;;6.10;99.90;;;;;;5111554;28;20040;-72
2021/12/20 02:19:18;;;;;;;14.80;2.40;;;6.10;99.90;;;;;;5115046;28;20054;-72
2021/12/20 02:21:45;;;;;;;13.65;2.17;;;6.00;99.90;;;;;;5113880;28;20092;-72
2021/12/20 02:24:12;;;;;;;13.75;2.13;;;6.00;99.90;;;;;;5096638;28;20112;-72
2021/12/20 02:26:38;;;;;;;11.52;1.85;;;6.00;99.90;;;;;;5113954;28;20035;-72
2021/12/20 02:29:07;;;;;;;11.20;1.65;;;6.00;99.90;;;;;;5114931;28;20028;-72
2021/12/20 02:37:20;;;;;;;11.80;2.08;;;5.90;99.90;;;;;;5113367;28;20047;-72
2021/12/20 02:39:47;;;;;;;9.15;1.52;;;5.90;99.90;;;;;;5096734;28;20046;-72
2021/12/20 02:42:17;;;;;;;11.50;2.53;;;5.90;99.90;;;;;;5096767;28;20039;-72
2021/12/20 02:44:53;;;;;;;7.82;1.48;;;5.80;99.90;;;;;;5113622;28;20062;-72
2021/12/20 02:47:28;;;;;;;13.48;2.00;;;5.80;99.90;;;;;;5110674;28;20054;-72
2021/12/20 02:49:55;;;;;;;11.55;1.73;;;5.80;99.90;;;;;;5113321;28;20028;-72
2021/12/20 02:52:20;;;;;;;14.02;2.08;;;5.80;99.90;;;;;;5094809;28;20043;-72
2021/12/20 02:54:46;;;;;;;10.63;1.73;;;5.70;99.90;;;;;;5096689;28;20392;-72
2021/12/20 02:57:11;;;;;;;10.73;1.70;;;5.70;99.90;;;;;;5112518;28;20122;-72
2021/12/20 02:59:37;;;;;;;7.70;1.30;;;5.70;99.90;;;;;;5097562;28;20035;-72
2021/12/20 03:02:06;;;;;;;8.18;1.30;;;5.70;99.90;;;;;;5113063;28;20523;-72
2021/12/20 03:04:33;;;;;;;9.63;1.42;;;5.60;99.90;;;;;;5097169;28;20045;-72
2021/12/20 03:07:04;;;;;;;11.13;1.50;;;5.60;99.90;;;;;;5095650;28;20384;-72
2021/12/20 03:09:35;;;;;;;11.17;1.40;;;5.60;99.90;;;;;;5114020;28;20038;-72
2021/12/20 03:12:02;;;;;;;15.90;2.15;;;5.50;99.90;;;;;;5096105;28;20031;-72
2021/12/20 03:14:37;;;;;;;11.40;1.42;;;5.50;99.90;;;;;;5114018;28;20039;-72
2021/12/20 03:17:03;;;;;;;8.13;1.80;;;5.50;99.90;;;;;;5095253;28;20031;-72
2021/12/20 03:19:29;;;;;;;8.40;1.40;;;5.40;99.90;;;;;;5114025;28;20043;-72
2021/12/20 03:21:55;;;;;;;12.70;2.20;;;5.40;99.90;;;;;;5112201;28;20089;-72
2021/12/20 03:24:21;;;;;;;10.93;1.42;;;5.40;99.90;;;;;;5113807;28;20035;-72
2021/12/20 03:26:46;;;;;;;10.80;1.55;;;5.30;99.90;;;;;;5095312;28;20039;-72
2021/12/20 03:29:12;;;;;;;12.60;2.00;;;5.30;99.90;;;;;;5113974;28;20495;-72
2021/12/20 03:31:38;;;;;;;7.95;1.70;;;5.30;99.90;;;;;;5110014;28;20069;-72
2021/12/20 03:34:05;;;;;;;9.02;1.55;;;5.30;99.90;;;;;;5129431;27;20467;-72
2021/12/20 03:36:31;;;;;;;10.93;1.67;;;5.20;99.90;;;;;;5112259;28;20051;-71
2021/12/20 03:38:56;;;;;;;8.40;1.42;;;5.10;99.90;;;;;;5096588;28;20096;-71
2021/12/20 03:41:23;;;;;;;9.20;1.60;;;5.10;99.90;;;;;;5110324;28;20543;-71
2021/12/20 03:43:49;;;;;;;10.02;1.60;;;5.10;99.90;;;;;;5096756;28;20391;-72
2021/12/20 03:46:15;;;;;;;8.48;1.52;;;4.90;99.90;;;;;;5109923;28;20050;-72
2021/12/20 03:48:40;;;;;;;8.93;1.55;;;5.00;99.90;;;;;;5095473;28;20491;-71
2021/12/20 03:51:06;;;;;;;9.05;1.48;;;5.00;99.90;;;;;;5093371;28;20028;-71
2021/12/20 03:53:33;;;;;;;12.75;2.35;;;4.90;99.90;;;;;;5096154;28;20092;-72
2021/12/20 03:56:00;;;;;;;9.30;1.50;;;4.90;99.90;;;;;;5111996;28;20065;-72
2021/12/20 03:58:28;;;;;;;7.15;1.20;;;4.80;99.90;;;;;;5111744;28;20057;-72
2021/12/20 04:00:59;;;;;;;9.98;1.50;;;4.70;99.90;;;;;;5095141;28;20497;-72
2021/12/20 04:03:26;;;;;;;7.75;1.30;;;4.70;99.90;;;;;;5093738;28;20111;-71
2021/12/20 04:05:52;;;;;;;8.02;1.30;;;4.70;99.90;;;;;;5112250;28;20110;-71
2021/12/20 04:08:18;;;;;;;10.38;1.85;;;4.60;99.90;;;;;;5113210;28;20383;-71
2021/12/20 04:10:43;;;;;;;10.45;1.90;;;4.50;99.90;;;;;;5111620;28;20038;-72
2021/12/20 04:13:09;;;;;;;9.88;1.73;;;4.50;99.90;;;;;;5092406;28;20487;-71
2021/12/20 04:15:36;;;;;;;7.57;1.50;;;4.40;99.90;;;;;;5112084;28;20031;-72
2021/12/20 04:18:03;;;;;;;6.95;1.33;;;4.50;99.90;;;;;;5112192;28;20039;-71
2021/12/20 04:20:28;;;;;;;7.82;1.40;;;4.40;99.90;;;;;;5111228;28;20044;-72
2021/12/20 04:22:54;;;;;;;6.80;1.85;;;4.40;99.90;;;;;;5093299;28;20042;-72
2021/12/20 04:25:20;;;;;;;10.50;1.50;;;4.40;99.90;;;;;;5111188;28;20028;-72
2021/12/20 04:27:46;;;;;;;5.47;1.25;;;4.30;99.90;;;;;;5110989;28;20027;-72
2021/12/20 04:30:11;;;;;;;6.00;1.55;;;4.30;99.90;;;;;;5112497;28;20399;-72
2021/12/20 04:32:40;;;;;;;5.20;1.02;;;4.30;99.90;;;;;;5111355;28;20031;-72
2021/12/20 04:35:07;;;;;;;8.65;1.27;;;4.20;99.90;;;;;;5094201;28;20035;-72
2021/12/20 04:37:32;;;;;;;9.25;1.30;;;4.20;99.90;;;;;;5093382;28;20039;-72
2021/12/20 04:39:59;;;;;;;4.85;0.77;;;4.20;99.90;;;;;;5109360;28;20051;-72
2021/12/20 04:42:25;;;;;;;10.65;1.30;;;4.20;99.90;;;;;;5109477;28;20044;-71
2021/12/20 04:44:50;;;;;;;9.15;1.17;;;4.20;99.90;;;;;;5095525;28;20032;-72
2021/12/20 04:47:16;;;;;;;6.50;1.20;;;4.20;99.90;;;;;;5092262;28;20035;-71
2021/12/20 04:49:42;;;;;;;7.35;0.98;;;4.20;99.90;;;;;;5095223;28;20035;-72
2021/12/20 04:52:07;;;;;;;8.13;1.17;;;4.00;99.90;;;;;;5093552;28;20039;-71
2021/12/20 04:54:33;;;;;;;5.75;0.95;;;4.00;99.90;;;;;;5112293;28;20031;-72
2021/12/20 04:56:58;;;;;;;6.95;1.65;;;3.90;99.90;;;;;;5094315;28;20494;-71
2021/12/20 04:59:24;;;;;;;8.57;1.52;;;3.90;99.90;;;;;;5094854;28;20081;-71
2021/12/20 05:01:50;;;;;;;6.57;1.10;;;3.90;99.90;;;;;;5094812;28;20516;-71
2021/12/20 05:04:15;;;;;;;5.07;1.38;;;3.90;99.90;;;;;;5111061;28;20043;-71
2021/12/20 05:06:41;;;;;;;6.53;1.17;;;3.90;99.90;;;;;;5112126;28;20114;-71
2021/12/20 05:09:07;;;;;;;7.47;1.23;;;3.90;99.90;;;;;;5093259;28;20168;-72
2021/12/20 05:11:34;;;;;;;5.18;1.08;;;3.90;99.90;;;;;;5094908;28;20089;-71
2021/12/20 05:14:01;;;;;;;5.97;1.10;;;3.90;99.90;;;;;;5091181;28;20046;-72
2021/12/20 05:16:27;;;;;;;8.90;1.35;;;3.90;99.90;;;;;;5094782;28;20480;-71
2021/12/20 05:18:53;;;;;;;6.30;1.13;;;3.80;99.90;;;;;;5091548;28;20036;-71
2021/12/20 05:21:19;;;;;;;6.13;1.15;;;3.70;99.90;;;;;;5112129;28;20063;-71
2021/12/20 05:23:44;;;;;;;6.97;1.00;;;3.70;99.90;;;;;;5110758;28;20027;-72
2021/12/20 05:26:10;;;;;;;6.93;1.42;;;3.70;99.90;;;;;;5111657;28;20036;-71
2021/12/20 05:28:35;;;;;;;8.48;1.38;;;3.70;99.90;;;;;;5091006;28;20085;-71
2021/12/20 05:31:01;;;;;;;10.43;1.08;;;3.70;99.90;;;;;;5111989;28;20059;-71
2021/12/20 05:33:27;;;;;;;6.55;1.02;;;3.60;99.90;;;;;;5110649;28;20035;-71
2021/12/20 05:35:53;;;;;;;7.55;1.38;;;3.50;99.90;;;;;;5092155;28;20073;-71
2021/12/20 05:38:19;;;;;;;7.13;1.10;;;3.50;99.90;;;;;;5108894;28;20048;-71
2021/12/20 05:40:45;;;;;;;7.45;1.38;;;3.60;99.90;;;;;;5113962;28;20494;-71
2021/12/20 05:43:11;;;;;;;6.80;1.38;;;3.60;99.90;;;;;;5115317;28;20144;-71
2021/12/20 05:45:36;;;;;;;8.88;1.08;;;3.60;99.90;;;;;;5098741;28;20080;-71
2021/12/20 05:48:02;;;;;;;5.40;1.13;;;3.60;99.90;;;;;;5095762;28;20028;-71
2021/12/20 05:50:28;;;;;;;5.30;0.98;;;3.50;99.90;;;;;;5098019;28;20035;-71
2021/12/20 05:52:53;;;;;;;6.60;1.08;;;3.30;99.90;;;;;;5114355;28;20495;-71
2021/12/20 05:55:19;;;;;;;7.05;1.55;;;3.10;99.90;;;;;;5098838;28;20044;-71
2021/12/20 05:57:46;;;;;;;7.72;1.27;;;3.10;99.90;;;;;;5114161;28;20038;-71
2021/12/20 06:00:16;;;;;;;7.43;1.20;;;3.10;99.90;;;;;;5111896;28;20081;-71
2021/12/20 06:02:43;;;;;;;8.25;1.20;;;3.00;99.90;;;;;;5113269;28;20130;-71
2021/12/20 06:05:09;;;;;;;6.53;0.93;;;2.90;99.90;;;;;;5114701;28;20118;-71
2021/12/20 06:07:39;;;;;;;9.07;1.45;;;2.90;99.90;;;;;;5097189;28;20042;-71
2021/12/20 06:10:06;;;;;;;12.20;1.70;;;2.80;99.90;;;;;;5097693;28;20071;-71
2021/12/20 06:12:32;;;;;;;6.88;1.30;;;2.60;99.90;;;;;;5097891;28;20039;-71
2021/12/20 06:14:57;;;;;;;8.70;1.67;;;2.60;99.90;;;;;;5098321;28;20173;-71
2021/12/20 06:17:23;;;;;;;5.43;1.10;;;2.70;99.90;;;;;;5111027;28;20039;-71
2021/12/20 06:19:49;;;;;;;7.78;1.15;;;2.80;99.90;;;;;;5114971;28;20043;-71
2021/12/20 06:22:14;;;;;;;7.50;1.50;;;2.80;99.90;;;;;;5096186;28;20043;-71
2021/12/20 06:24:40;;;;;;;7.28;1.40;;;2.80;99.90;;;;;;5097069;28;20031;-71
2021/12/20 06:27:06;;;;;;;5.38;1.48;;;2.90;99.90;;;;;;5098112;28;20067;-71
2021/12/20 06:29:33;;;;;;;8.65;1.48;;;2.90;99.90;;;;;;5096512;28;20046;-71
2021/12/20 06:31:58;;;;;;;10.18;1.33;;;2.90;99.90;;;;;;5097838;28;20092;-71
2021/12/20 06:34:24;;;;;;;8.55;2.30;;;2.90;99.90;;;;;;5096804;28;20445;-71
2021/12/20 06:36:50;;;;;;;7.90;1.65;;;2.90;99.90;;;;;;5112083;28;20492;-71
2021/12/20 06:39:16;;;;;;;7.47;1.65;;;2.80;99.90;;;;;;5112319;28;20502;-71
2021/12/20 06:41:42;;;;;;;7.00;1.20;;;2.70;99.90;;;;;;5126491;28;20039;-71
2021/12/20 06:44:08;;;;;;;7.82;1.77;;;2.60;99.90;;;;;;5113342;28;20122;-71
2021/12/20 06:46:37;;;;;;;7.22;1.77;;;2.50;99.90;;;;;;5121742;28;20118;-71
2021/12/20 06:49:05;;;;;;;7.07;1.70;;;2.60;99.90;;;;;;5096473;28;20379;-71
2021/12/20 06:51:34;;;;;;;7.50;1.88;;;2.60;99.90;;;;;;5111154;28;20075;-71
2021/12/20 06:54:00;;;;;;;8.05;1.77;;;2.50;99.90;;;;;;5096464;28;20100;-71
2021/12/20 06:56:26;;;;;;;9.05;1.92;;;2.50;99.90;;;;;;5092046;28;20031;-71
2021/12/20 06:58:54;;;;;;;5.25;1.40;;;2.50;99.90;;;;;;5113107;28;20042;-71
2021/12/20 07:01:20;;;;;;;9.38;2.47;;;2.60;99.90;;;;;;5095165;28;20075;-71
2021/12/20 07:03:46;;;;;;;6.97;2.05;;;2.70;99.90;;;;;;5112050;28;20032;-71
2021/12/20 07:06:12;;;;;;;11.63;2.72;;;2.60;99.90;;;;;;5095396;28;20039;-71
2021/12/20 07:08:37;;;;;;;9.18;2.15;;;2.50;99.90;;;;;;5108175;28;20035;-71
2021/12/20 07:11:05;;;;;;;5.47;1.70;;;2.50;99.90;;;;;;5095906;28;20028;-71
2021/12/20 07:13:31;;;;;;;9.35;2.40;;;2.50;99.90;;;;;;5094975;28;20472;-71
2021/12/20 07:15:57;;;;;;;9.32;2.75;;;2.50;99.90;;;;;;5112897;28;20101;-71
2021/12/20 07:18:22;;;;;;;8.07;2.40;;;2.50;99.90;;;;;;5094972;28;20441;-71
2021/12/20 07:20:48;;;;;;;8.02;2.10;;;2.50;99.90;;;;;;5112775;28;20495;-71
2021/12/20 07:23:14;;;;;;;7.30;1.98;;;2.50;99.90;;;;;;5110910;28;20126;-71
2021/12/20 07:25:40;;;;;;;7.05;1.92;;;2.40;99.90;;;;;;5112979;28;20130;-71
2021/12/20 07:28:06;;;;;;;7.00;2.00;;;2.40;99.90;;;;;;5109360;28;20043;-71
2021/12/20 07:30:32;;;;;;;8.00;2.10;;;2.30;99.90;;;;;;5089134;28;20039;-71
2021/12/20 07:32:58;;;;;;;5.97;1.65;;;2.30;99.90;;;;;;5106301;28;20054;-71
2021/12/20 07:35:24;;;;;;;8.75;1.92;;;2.30;99.90;;;;;;5115745;28;20081;-71
2021/12/20 07:37:52;;;;;;;4.72;1.80;;;2.30;99.90;;;;;;5045898;28;1038478;-71
2021/12/20 07:40:18;;;;;;;6.30;1.27;;;2.30;99.90;;;;;;5113476;27;20067;-71
2021/12/20 07:42:43;;;;;;;7.47;1.60;;;2.30;99.90;;;;;;5112171;28;20086;-71
2021/12/20 07:45:10;;;;;;;4.95;1.20;;;2.40;99.90;;;;;;5109116;27;20499;-71
2021/12/20 07:47:35;;;;;;;5.95;1.63;;;2.30;99.90;;;;;;5142032;27;20035;-71
2021/12/20 07:50:01;;;;;;;7.35;1.88;;;2.30;99.90;;;;;;5111298;28;20038;-71
2021/12/20 07:52:27;;;;;;;5.88;1.42;;;2.30;99.90;;;;;;5112892;28;20067;-70
2021/12/20 07:54:52;;;;;;;7.15;1.95;;;2.30;99.90;;;;;;5095096;28;20035;-71
2021/12/20 07:57:18;;;;;;;6.10;1.70;;;2.20;99.90;;;;;;5108661;28;20075;-71
2021/12/20 07:59:43;;;;;;;3.75;1.33;;;2.20;99.90;;;;;;5112792;28;20528;-70
2021/12/20 08:02:09;;;;;;;7.57;1.65;;;2.20;99.90;;;;;;5093924;28;20609;-71
2021/12/20 08:04:34;;;;;;;9.10;2.90;;;2.20;99.90;;;;;;5096662;28;20036;-71
2021/12/20 08:07:01;;;;;;;8.98;2.13;;;2.20;99.90;;;;;;5111195;27;20090;-71
2021/12/20 08:09:26;;;;;;;6.95;1.85;;;2.30;99.90;;;;;;5092418;28;20035;-70
2021/12/20 08:11:52;;;;;;;7.47;1.70;;;2.20;99.90;;;;;;5104704;28;20460;-71
2021/12/20 08:14:17;;;;;;;8.98;1.90;;;2.10;99.90;;;;;;5111243;28;20056;-71
2021/12/20 08:16:43;;;;;;;7.82;1.95;;;1.90;99.90;;;;;;5108383;27;20069;-71
2021/12/20 08:19:08;;;;;;;6.75;1.83;;;1.90;99.90;;;;;;5103836;28;20035;-71
2021/12/20 08:21:34;;;;;;;8.00;1.83;;;1.80;99.90;;;;;;5092894;28;20036;-71
2021/12/20 08:24:00;;;;;;;7.00;1.63;;;1.80;99.90;;;;;;5109942;27;20146;-71
2021/12/20 08:26:26;;;;;;;6.28;1.58;;;1.70;99.90;;;;;;5093168;28;20562;-71
2021/12/20 08:28:52;;;;;;;4.18;1.02;;;1.70;99.90;;;;;;5104992;28;20043;-70
2021/12/20 08:31:18;;;;;;;8.57;1.77;;;1.80;99.90;;;;;;5094567;28;20401;-71
2021/12/20 08:33:44;;;;;;;4.38;1.17;;;1.80;99.90;;;;;;5090568;28;20035;-71
2021/12/20 08:36:12;;;;;;;6.88;1.70;;;1.80;99.90;;;;;;5092348;28;20093;-70
2021/12/20 08:38:38;;;;;;;7.40;1.55;;;1.90;99.90;;;;;;5090939;28;20484;-71
2021/12/20 08:41:04;;;;;;;6.45;1.80;;;1.90;99.90;;;;;;5110792;28;20040;-71
2021/12/20 08:43:30;;;;;;;5.72;1.80;;;2.00;99.90;;;;;;5141734;27;20039;-70
2021/12/20 08:45:59;;;;;;;7.15;2.00;;;2.00;99.90;;;;;;5104233;27;20035;-71
2021/12/20 08:48:25;;;;;;;5.78;1.63;;;2.00;99.90;;;;;;5104262;28;20054;-70
2021/12/20 08:50:51;;;;;;;6.95;1.88;;;2.00;99.90;;;;;;5089796;28;20040;-70
2021/12/20 08:53:17;;;;;;;6.32;2.03;;;2.20;99.90;;;;;;5102025;28;20720;-71
2021/12/20 08:55:43;;;;;;;4.13;1.55;;;2.20;99.90;;;;;;5094420;28;20030;-71
2021/12/20 08:58:08;;;;;;;4.25;1.20;;;2.20;99.90;;;;;;5108367;27;20558;-70
2021/12/20 09:00:36;;;;;;;3.25;1.33;;;2.30;99.90;;;;;;5110556;28;20036;-71
2021/12/20 09:03:02;;;;;;;5.65;1.50;;;2.20;99.90;;;;;;5109840;28;20074;-70
2021/12/20 09:05:30;;;;;;;6.93;1.50;;;2.20;99.90;;;;;;5094487;28;20032;-71
2021/12/20 09:07:57;;;;;;;7.20;1.35;;;2.20;99.90;;;;;;5105329;28;20062;-71
2021/12/20 09:10:23;;;;;;;4.32;1.20;;;2.20;99.90;;;;;;5091675;28;20040;-71
2021/12/20 09:12:49;;;;;;;3.80;1.52;;;2.20;99.90;;;;;;5092900;28;20047;-71
2021/12/20 09:15:17;;;;;;;3.75;1.40;;;2.20;99.90;;;;;;5091881;28;20399;-71
2021/12/20 09:17:44;;;;;;;5.97;1.23;;;2.20;99.90;;;;;;5107583;28;20039;-71
2021/12/20 09:20:11;;;;;;;6.80;1.60;;;2.20;99.90;;;;;;5109682;28;20039;-71
2021/12/20 09:22:50;;;;;;;6.25;1.95;;;2.20;99.90;;;;;;5109800;28;20036;-71
2021/12/20 09:25:17;;;;;;;7.43;1.45;;;2.20;99.90;;;;;;5108796;28;20475;-71
2021/12/20 09:27:42;;;;;;;5.80;1.42;;;2.20;99.90;;;;;;5087885;28;20028;-71
2021/12/20 09:30:08;;;;;;;6.85;1.70;;;2.30;99.90;;;;;;5122417;27;20518;-71
2021/12/20 09:32:34;;;;;;;5.38;1.20;;;2.30;99.90;;;;;;5109455;28;20081;-71
2021/12/20 09:34:59;;;;;;;6.50;1.25;;;2.40;99.90;;;;;;5091515;28;20031;-71
2021/12/20 09:37:25;;;;;;;7.07;1.30;;;2.40;99.90;;;;;;5107383;28;20048;-71
2021/12/20 09:39:54;;;;;;;5.13;1.20;;;2.50;99.90;;;;;;5094242;28;20483;-71
2021/12/20 09:42:21;;;;;;;5.68;1.40;;;2.50;99.90;;;;;;5093054;28;20040;-71
2021/12/20 09:44:48;;;;;;;6.32;1.20;;;2.60;99.90;;;;;;5111455;28;20036;-71
2021/12/20 09:47:15;;;;;;;10.20;1.73;;;2.70;99.90;;;;;;5102193;28;20040;-71
2021/12/20 09:49:41;;;;;;;7.70;1.40;;;2.80;99.90;;;;;;5092196;28;20077;-71
2021/12/20 09:52:07;;;;;;;6.65;1.85;;;2.80;99.90;;;;;;5106327;28;20530;-71
2021/12/20 09:54:33;;;;;;;5.47;1.23;;;2.90;99.90;;;;;;5092965;28;20040;-71
2021/12/20 09:57:02;;;;;;;5.32;1.20;;;2.90;99.90;;;;;;5109064;28;20117;-71
2021/12/20 09:59:30;;;;;;;7.22;1.45;;;3.00;99.90;;;;;;5093966;28;20555;-71
2021/12/20 10:01:57;;;;;;;6.35;1.30;;;3.00;99.90;;;;;;5090926;28;20043;-71
2021/12/20 10:04:23;;;;;;;13.10;1.95;;;3.20;99.90;;;;;;5106642;28;20027;-71
2021/12/20 10:06:54;;;;;;;9.95;1.70;;;3.30;99.90;;;;;;5108809;28;20067;-71
2021/12/20 10:09:26;;;;;;;10.30;2.30;;;3.40;99.90;;;;;;5092975;28;20528;-71
2021/12/20 10:12:13;;;;;;;10.27;1.57;;;3.50;99.90;;;;;;5108138;28;20035;-71
2021/12/20 10:15:06;;;;;;;11.43;2.05;;;3.60;99.90;;;;;;5079676;28;20056;-71
2021/12/20 10:17:59;;;;;;;12.48;2.10;;;3.70;99.90;;;;;;5092402;28;20036;-71
2021/12/20 10:20:27;;;;;;;10.02;2.40;;;3.80;99.90;;;;;;5106380;28;20130;-71
2021/12/20 10:23:07;;;;;;;10.77;2.85;;;3.90;99.90;;;;;;5107404;28;20484;-71
2021/12/20 10:25:34;;;;;;;13.85;2.45;;;3.90;99.90;;;;;;5095227;28;20042;-71
2021/12/20 10:28:10;;;;;;;10.32;2.15;;;3.90;99.90;;;;;;5096775;28;20075;-71
2021/12/20 10:30:42;;;;;;;14.75;3.13;;;4.00;99.90;;;;;;5097319;28;20041;-71
2021/12/20 10:33:10;;;;;;;;;;;4.20;99.90;;;;;;5113705;28;20131;-71
2021/12/20 10:35:42;;;;;;;9.18;2.10;;;4.40;99.90;;;;;;5094933;28;20549;-72
2021/12/20 10:38:35;;;;;;;10.30;2.20;;;4.50;99.90;;;;;;5103990;28;20051;-72
2021/12/20 10:41:15;;;;;;;10.15;2.50;;;4.70;99.90;;;;;;5096447;28;20088;-72
2021/12/20 10:43:54;;;;;;;13.23;2.78;;;4.90;99.90;;;;;;5114840;28;20444;-72
2021/12/20 10:46:27;;;;;;;17.52;3.72;;;5.10;99.90;;;;;;5093899;28;20031;-72
2021/12/20 10:49:05;;;;;;;14.20;3.53;;;5.20;99.90;;;;;;5114226;28;20100;-72
2021/12/20 10:51:39;;;;;;;16.23;3.60;;;5.30;99.90;;;;;;5097270;28;20092;-72
2021/12/20 10:54:10;;;;;;;14.82;3.75;;;5.40;99.90;;;;;;5097440;28;20035;-72
2021/12/20 10:56:39;;;;;;;16.67;3.97;;;5.50;99.90;;;;;;5126573;27;20036;-72
2021/12/20 10:59:09;;;;;;;17.75;4.13;;;5.60;99.90;;;;;;5110746;28;20118;-72
2021/12/20 11:04:20;;;;;;;18.58;3.97;;;5.70;99.90;;;;;;5111555;28;20048;-72
2021/12/20 11:09:19;;;;;;;16.10;4.75;;;5.80;99.90;;;;;;5109576;28;20043;-72
2021/12/20 11:11:51;;;;;;;12.75;2.67;;;5.80;99.90;;;;;;5095842;28;20047;-72
2021/12/20 11:14:19;;;;;;;13.23;2.58;;;5.80;99.90;;;;;;5111541;28;20031;-72
2021/12/20 11:16:49;;;;;;;16.10;3.35;;;5.80;99.90;;;;;;5094299;28;20071;-72
2021/12/20 11:19:24;;;;;;;12.43;3.00;;;5.80;99.90;;;;;;5113988;28;20065;-72
2021/12/20 11:21:54;;;;;;;12.30;3.08;;;5.80;99.90;;;;;;5107019;28;20039;-72
2021/12/20 11:24:30;;;;;;;14.07;3.75;;;5.80;99.90;;;;;;5094011;28;20084;-72
2021/12/20 11:26:58;;;;;;;17.65;2.80;;;5.80;99.90;;;;;;5093261;28;20043;-72
2021/12/20 11:29:24;;;;;;;12.48;2.97;;;5.80;99.90;;;;;;5111560;28;20434;-72
2021/12/20 11:31:51;;;;;;;13.55;2.85;;;5.90;99.90;;;;;;5108655;28;20152;-72
2021/12/20 11:34:17;;;;;;;16.15;2.85;;;5.80;99.90;;;;;;5111958;28;20721;-72
2021/12/20 11:36:43;;;;;;;14.40;2.88;;;5.90;99.90;;;;;;5109943;28;20119;-72
2021/12/20 11:39:09;;;;;;;9.32;2.28;;;5.70;99.90;;;;;;5107421;28;20127;-72
2021/12/20 11:41:36;;;;;;;13.23;2.58;;;5.70;99.90;;;;;;5095021;28;20464;-72
2021/12/20 11:44:04;;;;;;;13.93;2.40;;;5.60;99.90;;;;;;5112293;28;20042;-72
2021/12/20 11:46:52;;;;;;;11.13;2.03;;;5.70;99.90;;;;;;5107579;28;20027;-72
2021/12/20 11:49:20;;;;;;;12.05;2.45;;;5.70;99.90;;;;;;5089429;28;20053;-72
2021/12/20 11:51:56;;;;;;;10.32;2.05;;;5.70;99.90;;;;;;5109600;28;20051;-72
2021/12/20 11:54:35;;;;;;;11.10;2.20;;;5.70;99.90;;;;;;5093236;28;20046;-72
2021/12/20 11:57:01;;;;;;;12.68;2.50;;;5.60;99.90;;;;;;5091614;28;20040;-72
2021/12/20 11:59:56;;;;;;;9.18;2.08;;;5.60;99.90;;;;;;5111190;28;20127;-72
2021/12/20 12:02:24;;;;;;;9.38;1.75;;;5.70;99.90;;;;;;5111960;28;20058;-73
2021/12/20 12:04:58;;;;;;;9.10;2.13;;;5.80;99.90;;;;;;5110153;28;20498;-72
2021/12/20 12:07:25;;;;;;;8.85;2.08;;;5.70;99.90;;;;;;5094202;28;20036;-72
2021/12/20 12:10:04;;;;;;;11.95;2.13;;;5.80;99.90;;;;;;5110512;28;20042;-72
2021/12/20 12:12:30;;;;;;;10.00;2.25;;;5.80;99.90;;;;;;5112393;28;20511;-72
2021/12/20 12:15:07;;;;;;;12.13;2.00;;;5.90;99.90;;;;;;5093056;28;20139;-72
2021/12/20 12:17:54;;;;;;;9.07;1.90;;;6.00;99.90;;;;;;5110784;28;20055;-72
2021/12/20 12:20:43;;;;;;;12.82;2.10;;;5.90;99.90;;;;;;5109742;28;20052;-72
2021/12/20 12:23:14;;;;;;;10.68;1.67;;;5.90;99.90;;;;;;5108382;28;20427;-72
2021/12/20 12:25:51;;;;;;;9.25;1.65;;;5.90;99.90;;;;;;5095382;28;20469;-72
2021/12/20 12:28:19;;;;;;;10.18;2.58;;;5.90;99.90;;;;;;5095475;28;20384;-72
2021/12/20 12:30:56;;;;;;;9.13;1.67;;;5.90;99.90;;;;;;5112309;28;20040;-72
2021/12/20 12:33:28;;;;;;;10.13;1.58;;;5.90;99.90;;;;;;5112015;28;20063;-72
2021/12/20 12:35:56;;;;;;;9.25;1.60;;;5.90;99.90;;;;;;5094842;28;20047;-72
2021/12/20 12:38:34;;;;;;;6.72;1.30;;;5.80;99.90;;;;;;5110603;28;20051;-72
2021/12/20 12:41:05;;;;;;;6.45;1.10;;;5.70;99.90;;;;;;5109399;28;20087;-72
2021/12/20 12:44:07;;;;;;;9.57;1.30;;;5.80;99.90;;;;;;5110914;28;20036;-72
2021/12/20 12:46:36;;;;;;;6.90;1.38;;;5.80;99.90;;;;;;5069973;28;20051;-72
2021/12/20 12:49:20;;;;;;;4.88;1.15;;;5.70;99.90;;;;;;5090923;28;20074;-72
2021/12/20 12:51:48;;;;;;;6.10;1.08;;;5.80;99.90;;;;;;5095220;28;20039;-72
2021/12/20 12:54:32;;;;;;;7.40;1.30;;;5.80;99.90;;;;;;5092895;28;20488;-72
2021/12/20 12:57:24;;;;;;;4.82;1.10;;;5.80;99.90;;;;;;5111946;28;20044;-72
2021/12/20 12:59:50;;;;;;;4.00;0.93;;;5.80;99.90;;;;;;5088188;28;20717;-72
2021/12/20 13:02:30;;;;;;;6.63;1.00;;;5.70;99.90;;;;;;5109597;28;20051;-72
2021/12/20 13:05:05;;;;;;;7.60;1.10;;;5.60;99.90;;;;;;5092117;28;20118;-72
2021/12/20 13:07:42;;;;;;;4.30;0.93;;;5.70;99.90;;;;;;5095106;28;20071;-72
2021/12/20 13:10:16;;;;;;;3.63;0.93;;;5.70;99.90;;;;;;5108010;28;20047;-72
2021/12/20 13:12:48;;;;;;;5.65;1.05;;;5.80;99.90;;;;;;5105120;28;20035;-72